Time;durP1;ratioP1;P1;durP2;ratioP2;P2;SDS_P1;SDS_P2;PMS_P1;PMS_P2;Temp;Humidity;BMP_temperature;BMP_pressure;BME280_temperature;BME280_humidity;BME280_pressure;Samples;Min_cycle;Max_cycle;Signal;HPM_P1;HPM_P2
2024/01/30 00:02:40;;;;;;;178.68;68.90;;;;;;;;;;6265488;28;20452;-66
2024/01/30 00:05:43;;;;;;;185.45;70.03;;;;;;;;;;6267699;28;20041;-67
2024/01/30 00:08:46;;;;;;;169.98;67.93;;;;;;;;;;6267265;28;20064;-67
2024/01/30 00:11:47;;;;;;;175.55;68.63;;;;;;;;;;6263675;28;20427;-68
2024/01/30 00:14:48;;;;;;;178.23;68.15;;;;;;;;;;6265273;28;20056;-67
2024/01/30 00:17:51;;;;;;;164.30;65.32;;;;;;;;;;6249536;28;20052;-67
2024/01/30 00:20:52;;;;;;;174.73;68.85;;;;;;;;;;6266147;28;20048;-67
2024/01/30 00:23:53;;;;;;;180.18;70.30;;;;;;;;;;6266053;28;20491;-67
2024/01/30 00:26:53;;;;;;;176.70;65.90;;;;;;;;;;6259558;28;20049;-66
2024/01/30 00:29:54;;;;;;;157.73;60.63;;;;;;;;;;6257169;28;20494;-67
2024/01/30 00:32:55;;;;;;;161.73;62.92;;;;;;;;;;6257811;28;20102;-66
2024/01/30 00:35:56;;;;;;;157.30;62.47;;;;;;;;;;6257638;28;20045;-66
2024/01/30 00:38:56;;;;;;;170.45;60.67;;;;;;;;;;6258376;28;20103;-66
2024/01/30 00:41:57;;;;;;;158.43;59.78;;;;;;;;;;6260231;28;20544;-67
2024/01/30 00:44:58;;;;;;;155.35;58.08;;;;;;;;;;6252389;28;20053;-66
2024/01/30 00:47:59;;;;;;;154.70;59.00;;;;;;;;;;6261335;28;20048;-67
2024/01/30 00:50:59;;;;;;;147.23;58.47;;;;;;;;;;6256071;28;20506;-67
2024/01/30 00:54:00;;;;;;;141.80;59.55;;;;;;;;;;6258478;28;20052;-66
2024/01/30 00:57:00;;;;;;;167.68;63.08;;;;;;;;;;6261348;28;20037;-67
2024/01/30 01:00:02;;;;;;;168.23;62.83;;;;;;;;;;6258533;28;20045;-68
2024/01/30 01:03:03;;;;;;;150.35;59.03;;;;;;;;;;6256599;28;20235;-67
2024/01/30 01:06:04;;;;;;;154.15;59.00;;;;;;;;;;6257982;28;20061;-67
2024/01/30 01:09:05;;;;;;;154.82;57.85;;;;;;;;;;6268318;28;20435;-67
2024/01/30 01:12:06;;;;;;;128.43;52.50;;;;;;;;;;6264354;28;20106;-66
2024/01/30 01:15:09;;;;;;;131.55;50.50;;;;;;;;;;6265433;28;20059;-66
2024/01/30 01:18:10;;;;;;;116.90;46.92;;;;;;;;;;6265890;28;20408;-66
2024/01/30 01:21:11;;;;;;;117.07;44.83;;;;;;;;;;6263312;28;20049;-68
2024/01/30 01:24:12;;;;;;;114.63;46.15;;;;;;;;;;6253928;28;20053;-66
2024/01/30 01:27:12;;;;;;;112.72;45.13;;;;;;;;;;6257887;28;20477;-67
2024/01/30 01:30:18;;;;;;;101.40;41.20;;;;;;;;;;6257616;28;20139;-66
2024/01/30 01:33:19;;;;;;;105.53;41.10;;;;;;;;;;6259578;28;20519;-67
2024/01/30 01:36:20;;;;;;;106.70;42.95;;;;;;;;;;6258515;28;20055;-67
2024/01/30 01:39:21;;;;;;;117.30;45.00;;;;;;;;;;6256268;28;20467;-67
2024/01/30 01:42:22;;;;;;;124.05;47.00;;;;;;;;;;6261985;28;20052;-66
2024/01/30 01:45:23;;;;;;;126.05;48.13;;;;;;;;;;6264201;28;20045;-67
2024/01/30 01:48:24;;;;;;;122.20;47.63;;;;;;;;;;6263893;28;20044;-66
2024/01/30 01:51:27;;;;;;;140.18;52.90;;;;;;;;;;6261135;28;20458;-66
2024/01/30 01:54:29;;;;;;;147.38;55.90;;;;;;;;;;6264222;28;20047;-67
2024/01/30 01:57:30;;;;;;;132.00;52.00;;;;;;;;;;6264955;28;20068;-67
2024/01/30 02:00:31;;;;;;;133.38;52.00;;;;;;;;;;6262698;28;20106;-67
2024/01/30 02:03:32;;;;;;;147.35;58.97;;;;;;;;;;6255208;28;20131;-66
2024/01/30 02:06:33;;;;;;;152.80;56.97;;;;;;;;;;6235902;28;20086;-66
2024/01/30 02:09:34;;;;;;;146.65;56.45;;;;;;;;;;6264585;28;20199;-66
2024/01/30 02:12:35;;;;;;;158.13;59.28;;;;;;;;;;6262958;28;20049;-66
2024/01/30 02:15:35;;;;;;;171.20;60.70;;;;;;;;;;6264516;28;20040;-66
2024/01/30 02:18:41;;;;;;;145.98;55.45;;;;;;;;;;6263309;28;20055;-67
2024/01/30 02:21:42;;;;;;;141.88;52.50;;;;;;;;;;6262940;28;20399;-67
2024/01/30 02:24:44;;;;;;;127.80;49.65;;;;;;;;;;6263612;28;20049;-67
2024/01/30 02:27:45;;;;;;;112.78;43.10;;;;;;;;;;6255720;28;20049;-66
2024/01/30 02:30:46;;;;;;;114.45;44.55;;;;;;;;;;6259327;28;20051;-66
2024/01/30 02:33:47;;;;;;;130.82;47.65;;;;;;;;;;6263194;28;20014;-66
2024/01/30 02:36:47;;;;;;;154.15;57.05;;;;;;;;;;6263156;28;20095;-66
2024/01/30 02:39:48;;;;;;;145.45;54.67;;;;;;;;;;6262329;28;20041;-67
2024/01/30 02:42:49;;;;;;;158.48;54.88;;;;;;;;;;6260768;28;20128;-67
2024/01/30 02:45:49;;;;;;;158.05;56.33;;;;;;;;;;6262989;28;20071;-66
2024/01/30 02:48:50;;;;;;;154.45;58.55;;;;;;;;;;6244860;28;20044;-66
2024/01/30 02:51:53;;;;;;;149.55;54.75;;;;;;;;;;6263255;28;20064;-67
2024/01/30 02:54:53;;;;;;;163.93;62.15;;;;;;;;;;6261051;28;20419;-67
2024/01/30 02:57:54;;;;;;;153.25;56.75;;;;;;;;;;6261984;28;20052;-67
2024/01/30 03:00:55;;;;;;;157.88;57.80;;;;;;;;;;6263971;28;20049;-67
2024/01/30 03:03:55;;;;;;;168.05;63.78;;;;;;;;;;6261513;28;20057;-67
2024/01/30 03:06:56;;;;;;;159.57;59.83;;;;;;;;;;6263402;28;20055;-67
2024/01/30 03:09:57;;;;;;;152.75;58.38;;;;;;;;;;6263923;28;20049;-66
2024/01/30 03:12:57;;;;;;;161.90;60.85;;;;;;;;;;6260561;28;20535;-66
2024/01/30 03:15:58;;;;;;;161.73;62.97;;;;;;;;;;6263528;28;20372;-67
2024/01/30 03:19:00;;;;;;;166.68;61.72;;;;;;;;;;6262973;28;20064;-66
2024/01/30 03:22:01;;;;;;;;;;;;;;;;;;6261140;28;20132;-67
2024/01/30 03:25:02;;;;;;;146.98;57.42;;;;;;;;;;6262197;28;19924;-66
2024/01/30 03:28:03;;;;;;;145.05;57.78;;;;;;;;;;6262571;28;20052;-66
2024/01/30 03:31:04;;;;;;;147.10;56.35;;;;;;;;;;6266897;28;20417;-66
2024/01/30 03:34:04;;;;;;;129.55;51.63;;;;;;;;;;6266072;28;20056;-66
2024/01/30 03:37:05;;;;;;;127.38;51.38;;;;;;;;;;6251803;28;20503;-66
2024/01/30 03:40:06;;;;;;;130.60;51.42;;;;;;;;;;6266585;28;20053;-66
2024/01/30 03:43:07;;;;;;;133.93;53.60;;;;;;;;;;6266602;28;20082;-65
2024/01/30 03:46:11;;;;;;;135.95;52.40;;;;;;;;;;6268322;28;20060;-66
2024/01/30 03:49:12;;;;;;;136.63;50.75;;;;;;;;;;6267355;28;20052;-66
2024/01/30 03:52:12;;;;;;;115.88;48.90;;;;;;;;;;6266380;28;20462;-66
2024/01/30 03:55:13;;;;;;;100.47;41.88;;;;;;;;;;6267348;28;20049;-66
2024/01/30 03:58:13;;;;;;;124.35;48.10;;;;;;;;;;6267860;28;20057;-66
2024/01/30 04:01:15;;;;;;;133.35;52.55;;;;;;;;;;6266348;28;20037;-66
2024/01/30 04:04:15;;;;;;;139.55;51.15;;;;;;;;;;6265146;28;20057;-66
2024/01/30 04:07:16;;;;;;;135.95;51.90;;;;;;;;;;6268830;28;20419;-66
2024/01/30 04:10:17;;;;;;;137.65;52.67;;;;;;;;;;6266667;28;20049;-66
2024/01/30 04:13:17;;;;;;;125.10;49.47;;;;;;;;;;6265350;28;20044;-66
2024/01/30 04:16:22;;;;;;;139.32;53.92;;;;;;;;;;6264935;28;20068;-66
2024/01/30 04:19:23;;;;;;;136.68;52.10;;;;;;;;;;6266235;28;20467;-65
2024/01/30 04:22:23;;;;;;;144.85;53.60;;;;;;;;;;6265743;28;20041;-67
2024/01/30 04:25:24;;;;;;;145.05;56.40;;;;;;;;;;6266484;28;20091;-65
2024/01/30 04:28:24;;;;;;;145.07;54.88;;;;;;;;;;6267079;28;20045;-66
2024/01/30 04:31:26;;;;;;;131.63;51.95;;;;;;;;;;6266836;28;20140;-66
2024/01/30 04:34:27;;;;;;;141.02;51.70;;;;;;;;;;6265145;28;20109;-65
2024/01/30 04:37:28;;;;;;;141.32;56.60;;;;;;;;;;6267053;28;20052;-65
2024/01/30 04:40:29;;;;;;;139.85;53.70;;;;;;;;;;6263044;28;20613;-66
2024/01/30 04:43:30;;;;;;;122.82;45.35;;;;;;;;;;6260987;28;20461;-66
2024/01/30 04:46:31;;;;;;;104.13;41.38;;;;;;;;;;6264193;28;20052;-65
2024/01/30 04:49:32;;;;;;;103.03;38.70;;;;;;;;;;6263591;28;20518;-66
2024/01/30 04:52:32;;;;;;;123.22;49.22;;;;;;;;;;6261010;28;20044;-66
2024/01/30 04:55:35;;;;;;;120.72;47.33;;;;;;;;;;6264184;28;20057;-66
2024/01/30 04:58:36;;;;;;;127.80;48.47;;;;;;;;;;6264522;28;20049;-66
2024/01/30 05:01:37;;;;;;;109.32;44.28;;;;;;;;;;6246426;28;20041;-66
2024/01/30 05:04:38;;;;;;;105.25;43.00;;;;;;;;;;6264883;28;20617;-66
2024/01/30 05:07:41;;;;;;;103.03;41.92;;;;;;;;;;6265536;28;20037;-66
2024/01/30 05:10:41;;;;;;;103.75;42.38;;;;;;;;;;6264385;28;20064;-66
2024/01/30 05:13:42;;;;;;;109.90;41.10;;;;;;;;;;6263181;28;20181;-66
2024/01/30 05:16:46;;;;;;;112.28;44.50;;;;;;;;;;6266914;28;20455;-67
2024/01/30 05:19:47;;;;;;;124.65;50.83;;;;;;;;;;6264304;28;20079;-66
2024/01/30 05:22:47;;;;;;;115.60;48.33;;;;;;;;;;6263878;28;20045;-67
2024/01/30 05:25:48;;;;;;;136.60;53.80;;;;;;;;;;6265250;28;20045;-66
2024/01/30 05:28:49;;;;;;;127.25;48.38;;;;;;;;;;6266076;28;20057;-66
2024/01/30 05:31:50;;;;;;;136.02;51.83;;;;;;;;;;6265102;28;20063;-67
2024/01/30 05:34:51;;;;;;;138.60;57.67;;;;;;;;;;6264623;28;20048;-67
2024/01/30 05:37:51;;;;;;;143.35;54.58;;;;;;;;;;6267408;28;20122;-67
2024/01/30 05:40:52;;;;;;;142.63;58.13;;;;;;;;;;6265758;28;20158;-66
2024/01/30 05:43:53;;;;;;;160.40;65.75;;;;;;;;;;6262289;28;20056;-66
2024/01/30 05:46:53;;;;;;;124.07;47.05;;;;;;;;;;6265566;28;20116;-67
2024/01/30 05:49:54;;;;;;;99.88;41.30;;;;;;;;;;6261609;28;20479;-66
2024/01/30 05:52:55;;;;;;;111.97;46.00;;;;;;;;;;6261417;28;20056;-65
2024/01/30 05:55:56;;;;;;;105.40;43.22;;;;;;;;;;6265290;28;20103;-66
2024/01/30 05:58:56;;;;;;;94.55;40.42;;;;;;;;;;6264378;28;20041;-67
2024/01/30 06:01:57;;;;;;;92.35;39.97;;;;;;;;;;6260511;28;20064;-67
2024/01/30 06:04:58;;;;;;;101.53;40.35;;;;;;;;;;6260333;28;20065;-66
2024/01/30 06:07:59;;;;;;;106.55;43.45;;;;;;;;;;6264054;28;20796;-66
2024/01/30 06:11:00;;;;;;;104.45;43.58;;;;;;;;;;6264083;28;20079;-66
2024/01/30 06:14:01;;;;;;;103.40;42.80;;;;;;;;;;6262972;28;20056;-66
2024/01/30 06:17:02;;;;;;;98.82;40.38;;;;;;;;;;6264572;28;20047;-66
2024/01/30 06:20:04;;;;;;;99.43;39.47;;;;;;;;;;6259132;28;20497;-66
2024/01/30 06:23:04;;;;;;;101.45;41.45;;;;;;;;;;6262147;28;20044;-67
2024/01/30 06:26:07;;;;;;;104.05;42.67;;;;;;;;;;6263587;28;20875;-70
2024/01/30 06:29:07;;;;;;;99.25;40.47;;;;;;;;;;6250652;28;20041;-67
2024/01/30 06:32:08;;;;;;;100.55;41.33;;;;;;;;;;6264583;28;20450;-73
2024/01/30 06:35:10;;;;;;;109.93;42.33;;;;;;;;;;6262109;28;20127;-67
2024/01/30 06:38:11;;;;;;;104.22;41.92;;;;;;;;;;6258150;28;20064;-66
2024/01/30 06:41:12;;;;;;;104.38;43.38;;;;;;;;;;6254934;28;20399;-68
2024/01/30 06:44:13;;;;;;;114.20;43.17;;;;;;;;;;6253171;28;20492;-67
2024/01/30 06:47:13;;;;;;;109.75;45.28;;;;;;;;;;6261438;28;20094;-66
2024/01/30 06:50:14;;;;;;;112.90;45.60;;;;;;;;;;6254367;28;20096;-66
2024/01/30 06:53:15;;;;;;;115.90;43.85;;;;;;;;;;6257242;28;20052;-67
2024/01/30 06:56:20;;;;;;;119.57;45.97;;;;;;;;;;6260082;28;20045;-69
2024/01/30 06:59:21;;;;;;;114.70;45.40;;;;;;;;;;6260266;28;20044;-69
2024/01/30 07:02:22;;;;;;;124.30;49.92;;;;;;;;;;6261482;28;20056;-68
2024/01/30 07:05:22;;;;;;;141.48;51.25;;;;;;;;;;6231273;28;20244;-68
2024/01/30 07:08:23;;;;;;;146.77;54.60;;;;;;;;;;6243413;28;20095;-68
2024/01/30 07:11:24;;;;;;;145.10;52.47;;;;;;;;;;6238647;28;20046;-68
2024/01/30 07:14:25;;;;;;;138.32;55.15;;;;;;;;;;6236133;28;20477;-68
2024/01/30 07:17:26;;;;;;;135.45;52.67;;;;;;;;;;6239795;28;20049;-68
2024/01/30 07:20:26;;;;;;;129.48;53.25;;;;;;;;;;6238027;28;20045;-68
2024/01/30 07:23:29;;;;;;;121.15;50.10;;;;;;;;;;6236820;28;20052;-68
2024/01/30 07:26:30;;;;;;;122.38;49.85;;;;;;;;;;6228349;28;20106;-68
2024/01/30 07:29:30;;;;;;;168.20;61.10;;;;;;;;;;6240688;28;20492;-68
2024/01/30 07:32:31;;;;;;;151.50;60.50;;;;;;;;;;6236714;28;20184;-69
2024/01/30 07:35:34;;;;;;;142.00;57.17;;;;;;;;;;6231197;28;20045;-68
2024/01/30 07:38:35;;;;;;;136.27;56.42;;;;;;;;;;6238355;28;20676;-68
2024/01/30 07:41:35;;;;;;;137.10;57.17;;;;;;;;;;6241298;28;20061;-68
2024/01/30 07:44:36;;;;;;;135.27;55.45;;;;;;;;;;6234252;28;20045;-68
2024/01/30 07:47:37;;;;;;;136.98;55.17;;;;;;;;;;6237394;28;20056;-68
2024/01/30 07:50:38;;;;;;;133.00;55.70;;;;;;;;;;6236310;28;20053;-68
2024/01/30 07:53:38;;;;;;;122.15;51.55;;;;;;;;;;6237130;28;20072;-68
2024/01/30 07:56:39;;;;;;;132.48;54.80;;;;;;;;;;6236753;28;20082;-69
2024/01/30 07:59:44;;;;;;;139.73;56.97;;;;;;;;;;6236861;28;20623;-68
2024/01/30 08:02:45;;;;;;;138.80;57.42;;;;;;;;;;6234767;28;20065;-69
2024/01/30 08:05:46;;;;;;;140.85;56.35;;;;;;;;;;6259970;28;20481;-68
2024/01/30 08:08:47;;;;;;;132.15;56.90;;;;;;;;;;6255420;28;20045;-68
2024/01/30 08:11:47;;;;;;;145.88;60.53;;;;;;;;;;6259934;28;20045;-68
2024/01/30 08:14:48;;;;;;;147.07;59.72;;;;;;;;;;6265310;28;20049;-68
2024/01/30 08:17:49;;;;;;;140.13;54.63;;;;;;;;;;6251291;28;20049;-68
2024/01/30 08:20:50;;;;;;;122.47;53.78;;;;;;;;;;6263128;28;20198;-68
2024/01/30 08:23:50;;;;;;;124.93;51.15;;;;;;;;;;6255109;28;20049;-68
2024/01/30 08:26:51;;;;;;;116.97;50.28;;;;;;;;;;6260741;28;20059;-68
2024/01/30 08:29:53;;;;;;;114.55;49.60;;;;;;;;;;6260392;28;20049;-69
2024/01/30 08:32:54;;;;;;;121.20;50.90;;;;;;;;;;6262088;28;20088;-69
2024/01/30 08:35:55;;;;;;;117.00;50.67;;;;;;;;;;6251700;28;20071;-68
2024/01/30 08:38:55;;;;;;;113.03;47.38;;;;;;;;;;6263533;28;20556;-68
2024/01/30 08:41:56;;;;;;;112.85;46.55;;;;;;;;;;6264650;28;20484;-69
2024/01/30 08:44:58;;;;;;;110.50;47.08;;;;;;;;;;6259391;28;20900;-70
2024/01/30 08:47:59;;;;;;;104.00;44.05;;;;;;;;;;6260557;28;20049;-69
2024/01/30 08:51:00;;;;;;;118.22;46.58;;;;;;;;;;6260925;28;20057;-69
2024/01/30 08:54:01;;;;;;;106.93;45.30;;;;;;;;;;6258899;28;20057;-69
2024/01/30 08:57:02;;;;;;;115.53;46.53;;;;;;;;;;6259674;28;20084;-69
2024/01/30 09:00:06;;;;;;;120.32;49.10;;;;;;;;;;6258235;28;20057;-69
2024/01/30 09:03:07;;;;;;;104.40;45.33;;;;;;;;;;6260857;28;20098;-70
2024/01/30 09:06:11;;;;;;;100.43;42.93;;;;;;;;;;6264039;28;20380;-70
2024/01/30 09:09:12;;;;;;;85.75;37.83;;;;;;;;;;6263310;28;20304;-70
2024/01/30 09:12:14;;;;;;;84.85;35.80;;;;;;;;;;6259697;28;20058;-71
2024/01/30 09:15:15;;;;;;;65.43;28.65;;;;;;;;;;6254380;28;20075;-71
2024/01/30 09:18:16;;;;;;;56.35;23.10;;;;;;;;;;6240388;28;20048;-69
2024/01/30 09:21:16;;;;;;;46.03;21.50;;;;;;;;;;6262916;28;20051;-70
2024/01/30 09:24:17;;;;;;;42.03;18.67;;;;;;;;;;6259839;28;20829;-70
2024/01/30 09:27:18;;;;;;;34.33;16.05;;;;;;;;;;6263393;28;20060;-70
2024/01/30 09:30:18;;;;;;;44.72;16.90;;;;;;;;;;6258859;28;20053;-70
2024/01/30 09:33:19;;;;;;;34.28;16.20;;;;;;;;;;6255375;28;20049;-69
2024/01/30 09:36:20;;;;;;;37.08;15.73;;;;;;;;;;6264830;28;20049;-69
2024/01/30 09:39:21;;;;;;;29.40;13.15;;;;;;;;;;6253745;28;20068;-70
2024/01/30 09:42:35;;;;;;;34.78;15.00;;;;;;;;;;6244598;28;20056;-70
2024/01/30 09:45:37;;;;;;;68.30;30.45;;;;;;;;;;6256586;28;20049;-69
2024/01/30 09:48:37;;;;;;;29.08;13.35;;;;;;;;;;6257864;28;20052;-70
2024/01/30 09:51:39;;;;;;;31.05;13.85;;;;;;;;;;6262880;28;20063;-70
2024/01/30 09:54:41;;;;;;;32.13;12.88;;;;;;;;;;6250800;28;20148;-68
2024/01/30 09:57:42;;;;;;;30.98;12.77;;;;;;;;;;6265718;28;20063;-71
2024/01/30 10:00:43;;;;;;;29.95;12.73;;;;;;;;;;6262853;28;20044;-69
2024/01/30 10:03:44;;;;;;;34.17;13.45;;;;;;;;;;6262536;28;20057;-70
2024/01/30 10:06:44;;;;;;;26.30;12.07;;;;;;;;;;6253069;28;20044;-70
2024/01/30 10:09:46;;;;;;;28.30;11.77;;;;;;;;;;6261183;28;20120;-70
2024/01/30 10:12:46;;;;;;;28.70;11.85;;;;;;;;;;6263212;28;20044;-71
2024/01/30 10:15:48;;;;;;;35.38;16.52;;;;;;;;;;6259892;28;20048;-70
2024/01/30 10:18:50;;;;;;;29.35;13.48;;;;;;;;;;6258162;28;20045;-68
2024/01/30 10:21:50;;;;;;;28.73;12.43;;;;;;;;;;6258747;28;20107;-70
2024/01/30 10:24:51;;;;;;;29.20;13.07;;;;;;;;;;6258555;28;20045;-68
2024/01/30 10:27:55;;;;;;;28.13;14.02;;;;;;;;;;6257080;28;20520;-70
2024/01/30 10:31:03;;;;;;;31.25;12.07;;;;;;;;;;6253507;28;20056;-68
2024/01/30 10:34:04;;;;;;;25.63;10.45;;;;;;;;;;6259635;28;20049;-70
2024/01/30 10:37:06;;;;;;;19.45;8.88;;;;;;;;;;6261616;28;20110;-71
2024/01/30 10:40:08;;;;;;;19.38;8.20;;;;;;;;;;6262194;28;20102;-71
2024/01/30 10:43:13;;;;;;;18.88;8.27;;;;;;;;;;6248216;28;20239;-71
2024/01/30 10:46:22;;;;;;;19.08;7.90;;;;;;;;;;6256226;28;20267;-69
2024/01/30 10:49:24;;;;;;;19.60;8.45;;;;;;;;;;6253884;28;20047;-71
2024/01/30 10:52:25;;;;;;;18.35;8.23;;;;;;;;;;6254650;28;20045;-68
2024/01/30 10:55:29;;;;;;;18.52;7.53;;;;;;;;;;6249031;28;20044;-70
2024/01/30 10:58:30;;;;;;;16.58;7.72;;;;;;;;;;6259201;28;20053;-68
2024/01/30 11:01:31;;;;;;;22.17;8.18;;;;;;;;;;6252349;28;20158;-71
2024/01/30 11:04:41;;;;;;;;;;;;;;;;;;6257232;28;20100;-67
2024/01/30 11:07:41;;;;;;;20.35;7.60;;;;;;;;;;6250101;28;19925;-68
2024/01/30 11:10:49;;;;;;;15.00;6.95;;;;;;;;;;6256105;28;20497;-66
2024/01/30 11:13:50;;;;;;;17.92;7.50;;;;;;;;;;6256005;28;20053;-67
2024/01/30 11:16:50;;;;;;;18.15;7.53;;;;;;;;;;6252341;28;20047;-67
2024/01/30 11:19:51;;;;;;;20.30;7.68;;;;;;;;;;6252961;28;20535;-66
2024/01/30 11:22:56;;;;;;;15.60;7.00;;;;;;;;;;6260813;28;20480;-67
2024/01/30 11:25:57;;;;;;;18.88;7.07;;;;;;;;;;6230025;28;20057;-70
2024/01/30 11:28:58;;;;;;;15.73;7.20;;;;;;;;;;6249839;28;20094;-67
2024/01/30 11:31:58;;;;;;;16.73;7.20;;;;;;;;;;6246551;28;20469;-67
2024/01/30 11:34:59;;;;;;;17.63;7.10;;;;;;;;;;6255584;28;20099;-68
2024/01/30 11:38:01;;;;;;;16.65;6.75;;;;;;;;;;6247066;28;20044;-67
2024/01/30 11:41:03;;;;;;;;;;;;;;;;;;6246361;28;20045;-70
2024/01/30 11:44:04;;;;;;;16.35;6.93;;;;;;;;;;6255192;28;19939;-67
2024/01/30 11:47:05;;;;;;;18.42;7.57;;;;;;;;;;6235111;28;20059;-67
2024/01/30 11:50:06;;;;;;;16.88;7.43;;;;;;;;;;6262530;28;20045;-67
2024/01/30 11:53:07;;;;;;;14.63;7.10;;;;;;;;;;6267543;28;20053;-67
2024/01/30 11:56:08;;;;;;;17.17;7.25;;;;;;;;;;6257845;28;20053;-67
2024/01/30 11:59:09;;;;;;;17.50;8.32;;;;;;;;;;6266651;28;20107;-66
2024/01/30 12:02:15;;;;;;;16.58;6.82;;;;;;;;;;6268449;28;20714;-67
2024/01/30 12:05:18;;;;;;;16.33;7.22;;;;;;;;;;6262642;28;20064;-67
2024/01/30 12:08:19;;;;;;;21.10;7.63;;;;;;;;;;6261886;28;20045;-69
2024/01/30 12:11:20;;;;;;;17.35;7.18;;;;;;;;;;6262487;28;20819;-67
2024/01/30 12:14:23;;;;;;;17.23;6.85;;;;;;;;;;6264062;28;20053;-68
2024/01/30 12:17:29;;;;;;;15.30;7.07;;;;;;;;;;6256235;28;20045;-68
2024/01/30 12:20:30;;;;;;;17.42;7.65;;;;;;;;;;6260445;28;20053;-70
2024/01/30 12:23:31;;;;;;;17.23;7.25;;;;;;;;;;6265342;28;20143;-69
2024/01/30 12:26:32;;;;;;;16.75;7.55;;;;;;;;;;6263666;28;20071;-68
2024/01/30 12:29:33;;;;;;;17.35;7.72;;;;;;;;;;6259894;28;20045;-70
2024/01/30 12:32:39;;;;;;;15.40;7.30;;;;;;;;;;6267848;28;20045;-71
2024/01/30 12:35:39;;;;;;;14.77;7.22;;;;;;;;;;6265528;28;20053;-68
2024/01/30 12:38:40;;;;;;;15.88;6.93;;;;;;;;;;6267088;28;20049;-67
2024/01/30 12:41:41;;;;;;;16.55;7.55;;;;;;;;;;6259343;28;20049;-67
2024/01/30 12:44:42;;;;;;;19.02;7.78;;;;;;;;;;6259711;28;20056;-68
2024/01/30 12:47:43;;;;;;;18.33;7.57;;;;;;;;;;6260928;28;20367;-68
2024/01/30 12:50:43;;;;;;;16.63;7.80;;;;;;;;;;6261182;28;20072;-69
2024/01/30 12:53:46;;;;;;;17.38;7.63;;;;;;;;;;6260464;28;20451;-68
2024/01/30 12:56:47;;;;;;;15.13;7.32;;;;;;;;;;6255770;28;20483;-69
2024/01/30 12:59:48;;;;;;;17.38;7.80;;;;;;;;;;6264203;28;20048;-69
2024/01/30 13:02:49;;;;;;;14.57;7.50;;;;;;;;;;6254037;28;20053;-69
2024/01/30 13:05:50;;;;;;;16.17;7.95;;;;;;;;;;6241375;28;20049;-69
2024/01/30 13:08:51;;;;;;;17.45;7.95;;;;;;;;;;6265674;28;20120;-69
2024/01/30 13:11:52;;;;;;;15.77;6.82;;;;;;;;;;6257075;28;20041;-68
2024/01/30 13:14:52;;;;;;;17.25;8.25;;;;;;;;;;6261814;28;20049;-69
2024/01/30 13:17:54;;;;;;;19.00;7.95;;;;;;;;;;6256047;28;20060;-68
2024/01/30 13:20:54;;;;;;;18.75;7.75;;;;;;;;;;6259807;28;20506;-69
2024/01/30 13:23:55;;;;;;;20.15;8.68;;;;;;;;;;6266241;28;20114;-69
2024/01/30 13:26:56;;;;;;;17.85;7.50;;;;;;;;;;6265150;28;20056;-69
2024/01/30 13:29:57;;;;;;;17.67;6.95;;;;;;;;;;6228399;28;20397;-70
2024/01/30 13:32:57;;;;;;;24.20;9.25;;;;;;;;;;6265295;28;20060;-70
2024/01/30 13:35:58;;;;;;;17.63;7.78;;;;;;;;;;6260168;28;20049;-67
2024/01/30 13:38:59;;;;;;;17.95;8.00;;;;;;;;;;6261284;28;20052;-68
2024/01/30 13:42:00;;;;;;;20.60;7.50;;;;;;;;;;6255391;28;20113;-69
2024/01/30 13:45:01;;;;;;;16.52;7.68;;;;;;;;;;6261866;28;20048;-68
2024/01/30 13:48:03;;;;;;;21.53;8.37;;;;;;;;;;6254194;28;20055;-70
2024/01/30 13:51:03;;;;;;;15.07;7.03;;;;;;;;;;6254100;28;20052;-67
2024/01/30 13:54:04;;;;;;;16.38;7.13;;;;;;;;;;6262604;28;20049;-68
2024/01/30 13:57:06;;;;;;;16.88;7.80;;;;;;;;;;6254272;28;20652;-68
2024/01/30 14:00:07;;;;;;;16.42;7.18;;;;;;;;;;6250050;28;20511;-69
2024/01/30 14:03:08;;;;;;;13.38;6.72;;;;;;;;;;6259506;28;20061;-70
2024/01/30 14:06:10;;;;;;;15.98;7.40;;;;;;;;;;6263738;28;20045;-69
2024/01/30 14:09:10;;;;;;;18.00;8.02;;;;;;;;;;6257223;28;20052;-68
2024/01/30 14:12:11;;;;;;;18.25;6.90;;;;;;;;;;6250616;28;20502;-69
2024/01/30 14:15:12;;;;;;;17.35;8.43;;;;;;;;;;6244555;28;20113;-69
2024/01/30 14:18:13;;;;;;;22.98;12.20;;;;;;;;;;6245217;28;20504;-69
2024/01/30 14:21:14;;;;;;;14.90;7.40;;;;;;;;;;6259931;28;20052;-69
2024/01/30 14:24:15;;;;;;;16.65;8.07;;;;;;;;;;6263706;28;20522;-69
2024/01/30 14:27:17;;;;;;;16.98;7.65;;;;;;;;;;6248562;28;20476;-70
2024/01/30 14:30:17;;;;;;;17.65;8.57;;;;;;;;;;6254637;28;20082;-69
2024/01/30 14:33:18;;;;;;;18.77;8.55;;;;;;;;;;6260381;28;20049;-68
2024/01/30 14:36:20;;;;;;;18.15;8.02;;;;;;;;;;6251689;28;20105;-69
2024/01/30 14:39:21;;;;;;;17.47;8.77;;;;;;;;;;6251976;28;20057;-69
2024/01/30 14:42:22;;;;;;;16.27;7.72;;;;;;;;;;6254977;28;20411;-69
2024/01/30 14:45:22;;;;;;;17.25;7.65;;;;;;;;;;6255656;28;20084;-68
2024/01/30 14:48:25;;;;;;;16.15;8.45;;;;;;;;;;6260625;28;20041;-68
2024/01/30 14:51:25;;;;;;;21.42;11.52;;;;;;;;;;6258592;28;20049;-69
2024/01/30 14:54:27;;;;;;;19.10;9.00;;;;;;;;;;6259519;28;20049;-68
2024/01/30 14:57:28;;;;;;;20.40;9.97;;;;;;;;;;6263934;28;20045;-68
2024/01/30 15:00:28;;;;;;;19.00;9.07;;;;;;;;;;6255022;28;20056;-70
2024/01/30 15:03:29;;;;;;;21.92;10.25;;;;;;;;;;6254299;28;20057;-68
2024/01/30 15:06:30;;;;;;;20.25;9.27;;;;;;;;;;6250639;28;20071;-67
2024/01/30 15:09:31;;;;;;;21.00;9.23;;;;;;;;;;6250523;28;20041;-70
2024/01/30 15:12:32;;;;;;;17.40;7.68;;;;;;;;;;6258084;28;20045;-70
2024/01/30 15:15:34;;;;;;;18.48;8.32;;;;;;;;;;6260848;28;20135;-70
2024/01/30 15:18:35;;;;;;;;;;;;;;;;;;6253570;28;20045;-69
2024/01/30 15:21:35;;;;;;;40.72;17.60;;;;;;;;;;6254237;28;19925;-71
2024/01/30 15:24:36;;;;;;;25.50;12.35;;;;;;;;;;6264759;28;20045;-70
2024/01/30 15:27:37;;;;;;;24.52;11.50;;;;;;;;;;6255694;28;20104;-71
2024/01/30 15:30:38;;;;;;;33.55;15.02;;;;;;;;;;6261938;28;20032;-71
2024/01/30 15:33:38;;;;;;;28.05;12.50;;;;;;;;;;6262198;28;20056;-72
2024/01/30 15:36:39;;;;;;;27.75;12.90;;;;;;;;;;6246081;28;20048;-71
2024/01/30 15:39:40;;;;;;;19.73;9.43;;;;;;;;;;6257492;28;20045;-70
2024/01/30 15:42:41;;;;;;;20.77;9.57;;;;;;;;;;6265791;28;20053;-71
2024/01/30 15:45:41;;;;;;;22.15;10.13;;;;;;;;;;6256043;28;20442;-71
2024/01/30 15:48:42;;;;;;;22.00;9.55;;;;;;;;;;6267084;28;20197;-69
2024/01/30 15:51:43;;;;;;;17.75;9.35;;;;;;;;;;6264760;28;20048;-71
2024/01/30 15:54:44;;;;;;;19.45;9.13;;;;;;;;;;6242997;28;20408;-70
2024/01/30 15:57:44;;;;;;;19.92;8.23;;;;;;;;;;6262596;28;20094;-69
2024/01/30 16:00:45;;;;;;;22.33;8.57;;;;;;;;;;6248339;28;20045;-73
2024/01/30 16:03:46;;;;;;;20.42;8.15;;;;;;;;;;6245907;28;20113;-72
2024/01/30 16:06:46;;;;;;;18.83;8.60;;;;;;;;;;6256641;28;20041;-70
2024/01/30 16:09:47;;;;;;;16.95;8.18;;;;;;;;;;6266064;28;20393;-70
2024/01/30 16:12:48;;;;;;;20.25;8.90;;;;;;;;;;6251942;28;20049;-70
2024/01/30 16:15:48;;;;;;;23.88;9.35;;;;;;;;;;6258180;28;20041;-70
2024/01/30 16:18:49;;;;;;;18.02;8.75;;;;;;;;;;6260039;28;20029;-70
2024/01/30 16:21:50;;;;;;;25.58;10.90;;;;;;;;;;6255699;28;20049;-72
2024/01/30 16:24:51;;;;;;;23.45;10.70;;;;;;;;;;6263969;28;20048;-71
2024/01/30 16:27:51;;;;;;;24.13;10.77;;;;;;;;;;6260833;28;20041;-73
2024/01/30 16:30:52;;;;;;;26.85;10.60;;;;;;;;;;6241358;28;20075;-75
2024/01/30 16:33:53;;;;;;;24.35;10.18;;;;;;;;;;6238033;28;20190;-73
2024/01/30 16:36:54;;;;;;;22.15;9.52;;;;;;;;;;6262328;28;20052;-74
2024/01/30 16:39:54;;;;;;;22.17;8.68;;;;;;;;;;6261479;28;20045;-74
2024/01/30 16:42:55;;;;;;;22.42;10.00;;;;;;;;;;6257574;28;20056;-75
2024/01/30 16:45:56;;;;;;;45.00;24.85;;;;;;;;;;6253210;28;20067;-70
2024/01/30 16:48:56;;;;;;;33.03;15.70;;;;;;;;;;6265134;28;20071;-68
2024/01/30 16:51:57;;;;;;;35.78;16.10;;;;;;;;;;6255090;28;20099;-69
2024/01/30 16:54:58;;;;;;;35.92;18.60;;;;;;;;;;6254582;28;20045;-70
2024/01/30 16:57:58;;;;;;;34.65;16.17;;;;;;;;;;6260599;28;20067;-68
2024/01/30 17:00:59;;;;;;;29.73;12.88;;;;;;;;;;6263476;28;20051;-70
2024/01/30 17:04:00;;;;;;;32.10;14.82;;;;;;;;;;6264628;28;20053;-71
2024/01/30 17:07:02;;;;;;;39.33;18.23;;;;;;;;;;6255002;28;20127;-72
2024/01/30 17:10:03;;;;;;;28.73;12.18;;;;;;;;;;6264929;28;20079;-72
2024/01/30 17:13:04;;;;;;;31.92;15.35;;;;;;;;;;6265773;28;20045;-72
2024/01/30 17:16:06;;;;;;;27.77;13.38;;;;;;;;;;6265716;28;20056;-72
2024/01/30 17:19:07;;;;;;;26.23;12.27;;;;;;;;;;6262686;28;20056;-72
2024/01/30 17:22:09;;;;;;;28.45;13.05;;;;;;;;;;6263171;28;20408;-72
2024/01/30 17:25:10;;;;;;;27.38;11.70;;;;;;;;;;6263494;28;20053;-72
2024/01/30 17:28:10;;;;;;;26.75;12.05;;;;;;;;;;6260125;28;20492;-71
2024/01/30 17:31:11;;;;;;;27.42;10.85;;;;;;;;;;6260772;28;20098;-70
2024/01/30 17:34:12;;;;;;;23.00;10.25;;;;;;;;;;6261220;28;20049;-72